createdAt,value
2022-11-30T00:01:36.043Z,17.30
2022-11-30T00:04:03.813Z,18.00
2022-11-30T00:06:31.563Z,18.50
2022-11-30T00:08:59.626Z,18.70
2022-11-30T00:11:31.185Z,17.00
2022-11-30T00:13:59.007Z,18.20
2022-11-30T00:16:30.146Z,18.60
2022-11-30T00:18:58.161Z,16.60
2022-11-30T00:21:26.133Z,15.00
2022-11-30T00:23:54.588Z,15.90
2022-11-30T00:26:25.551Z,15.70
2022-11-30T00:28:53.624Z,14.80
2022-11-30T00:31:22.276Z,14.90
2022-11-30T00:33:53.180Z,15.10
2022-11-30T00:36:24.489Z,14.60
2022-11-30T00:38:52.306Z,14.20
2022-11-30T00:41:22.989Z,13.80
2022-11-30T00:43:53.514Z,13.50
2022-11-30T00:46:21.584Z,14.60
2022-11-30T00:48:52.617Z,14.00
2022-11-30T00:51:20.966Z,13.60
2022-11-30T00:53:51.342Z,14.60
2022-11-30T00:56:19.582Z,13.50
2022-11-30T00:58:47.475Z,14.40
2022-11-30T01:01:15.365Z,15.00
2022-11-30T01:03:48.424Z,15.20
2022-11-30T01:06:19.570Z,13.30
2022-11-30T01:08:50.773Z,16.80
2022-11-30T01:11:25.546Z,15.80
2022-11-30T01:13:55.762Z,17.20
2022-11-30T01:16:30.345Z,15.80
2022-11-30T01:19:00.606Z,15.00
2022-11-30T01:21:31.953Z,15.30
2022-11-30T01:23:59.690Z,16.20
2022-11-30T01:26:30.262Z,16.60
2022-11-30T01:28:58.234Z,16.20
2022-11-30T01:31:26.093Z,15.30
2022-11-30T01:33:59.172Z,15.20
2022-11-30T01:36:27.213Z,15.80
2022-11-30T01:38:59.410Z,16.10
2022-11-30T01:41:31.575Z,14.30
2022-11-30T01:44:07.523Z,16.00
2022-11-30T01:46:59.345Z,15.40
2022-11-30T01:49:36.508Z,16.90
2022-11-30T01:52:16.289Z,13.40
2022-11-30T01:54:59.839Z,14.60
2022-11-30T01:57:38.768Z,12.30
2022-11-30T02:00:12.678Z,13.40
2022-11-30T02:03:13.950Z,14.40
2022-11-30T02:05:44.982Z,13.20
2022-11-30T02:08:12.942Z,13.20
2022-11-30T02:10:54.273Z,12.40
2022-11-30T02:13:49.030Z,12.10
2022-11-30T02:17:03.432Z,11.20
2022-11-30T02:19:49.808Z,12.70
2022-11-30T02:22:45.012Z,12.90
2022-11-30T02:25:45.607Z,12.60
2022-11-30T02:28:54.915Z,12.40
2022-11-30T02:31:34.976Z,13.40
2022-11-30T02:34:08.017Z,14.20
2022-11-30T02:36:38.490Z,15.30
2022-11-30T02:39:10.248Z,15.90
2022-11-30T02:41:41.639Z,14.90
2022-11-30T02:44:13.472Z,15.00
2022-11-30T02:47:00.049Z,13.50
2022-11-30T02:49:35.259Z,12.00
2022-11-30T02:52:07.890Z,13.40
2022-11-30T02:54:35.705Z,12.10
2022-11-30T02:57:06.268Z,12.20
2022-11-30T02:59:34.050Z,11.30
2022-11-30T03:02:02.092Z,12.00
2022-11-30T03:04:32.068Z,11.40
2022-11-30T03:06:59.926Z,11.00
2022-11-30T03:09:27.698Z,13.20
2022-11-30T03:11:58.302Z,12.80
2022-11-30T03:14:26.303Z,12.90
2022-11-30T03:16:54.455Z,12.80
2022-11-30T03:19:22.432Z,12.40
2022-11-30T03:21:52.952Z,13.20
2022-11-30T03:24:20.942Z,13.50
2022-11-30T03:26:48.780Z,12.50
2022-11-30T03:29:16.911Z,14.50
2022-11-30T03:31:45.972Z,12.30
2022-11-30T03:34:13.778Z,12.90
2022-11-30T03:36:41.560Z,13.10
2022-11-30T03:39:11.871Z,14.50
2022-11-30T03:41:42.501Z,14.70
2022-11-30T03:44:10.327Z,13.50
2022-11-30T03:46:38.141Z,14.80
2022-11-30T03:49:11.221Z,15.10
2022-11-30T03:51:39.006Z,13.60
2022-11-30T03:54:09.376Z,14.30
2022-11-30T03:56:39.693Z,14.00
2022-11-30T03:59:07.467Z,13.70
2022-11-30T04:01:39.567Z,14.30
2022-11-30T04:04:08.870Z,14.40
2022-11-30T04:06:36.669Z,13.80
2022-11-30T04:09:07.212Z,13.80
2022-11-30T04:11:38.092Z,13.50
2022-11-30T04:14:06.165Z,13.00
2022-11-30T04:16:33.983Z,12.80
2022-11-30T04:19:04.996Z,13.10
2022-11-30T04:21:32.774Z,15.00
2022-11-30T04:24:00.676Z,13.70
2022-11-30T04:26:28.448Z,14.10
2022-11-30T04:28:56.428Z,14.00
2022-11-30T04:31:24.463Z,14.60
2022-11-30T04:33:56.270Z,13.00
2022-11-30T04:36:24.035Z,12.30
2022-11-30T04:38:51.817Z,13.60
2022-11-30T04:41:19.768Z,12.70
2022-11-30T04:43:47.810Z,12.80
2022-11-30T04:46:15.856Z,12.70
2022-11-30T04:48:45.974Z,13.60
2022-11-30T04:51:14.037Z,12.50
2022-11-30T04:53:43.399Z,13.60
2022-11-30T04:56:14.287Z,13.10
2022-11-30T04:58:42.269Z,13.90
2022-11-30T05:01:13.327Z,14.00
2022-11-30T05:03:41.260Z,13.70
2022-11-30T05:06:09.033Z,13.40
2022-11-30T05:08:36.782Z,13.40
2022-11-30T05:11:04.748Z,12.70
2022-11-30T05:13:32.731Z,14.50
2022-11-30T05:16:02.123Z,14.60
2022-11-30T05:18:33.040Z,14.10
2022-11-30T05:21:04.436Z,13.50
2022-11-30T05:23:32.626Z,13.80
2022-11-30T05:26:05.714Z,14.20
2022-11-30T05:28:36.270Z,12.00
2022-11-30T05:31:07.721Z,13.90
2022-11-30T05:33:35.874Z,13.90
2022-11-30T05:36:10.656Z,15.00
2022-11-30T05:38:39.075Z,15.10
2022-11-30T05:41:07.069Z,13.80
2022-11-30T05:43:36.485Z,14.30
2022-11-30T05:46:07.134Z,16.00
2022-11-30T05:48:38.013Z,14.50
2022-11-30T05:51:09.952Z,14.20
2022-11-30T05:53:40.914Z,14.10
2022-11-30T05:56:15.520Z,14.90
2022-11-30T05:58:49.905Z,15.10
2022-11-30T06:01:36.190Z,15.50
2022-11-30T06:04:08.843Z,15.90
2022-11-30T06:06:37.109Z,16.10
2022-11-30T06:09:04.977Z,15.60
2022-11-30T06:11:34.275Z,15.50
2022-11-30T06:14:02.346Z,15.60
2022-11-30T06:16:30.258Z,17.60
2022-11-30T06:18:58.123Z,17.90
2022-11-30T06:21:25.947Z,15.70
2022-11-30T06:23:53.670Z,16.30
2022-11-30T06:26:21.474Z,15.80
2022-11-30T06:28:49.338Z,15.70
2022-11-30T06:31:17.283Z,15.80
2022-11-30T06:33:45.113Z,18.20
2022-11-30T06:36:12.885Z,15.50
2022-11-30T06:38:40.707Z,14.50
2022-11-30T06:41:10.546Z,14.80
2022-11-30T06:43:39.691Z,15.80
2022-11-30T06:46:08.102Z,14.60
2022-11-30T06:48:36.540Z,15.40
2022-11-30T06:51:09.147Z,14.10
2022-11-30T06:53:37.842Z,13.20
2022-11-30T06:56:10.465Z,15.70
2022-11-30T06:58:39.882Z,15.40
2022-11-30T07:01:10.934Z,16.70
2022-11-30T07:03:40.093Z,15.50
2022-11-30T07:06:13.416Z,13.60
2022-11-30T07:08:43.053Z,14.70
2022-11-30T07:11:12.352Z,14.30
2022-11-30T07:13:40.316Z,14.60
2022-11-30T07:16:11.546Z,15.50
2022-11-30T07:18:39.735Z,15.10
2022-11-30T07:21:08.114Z,15.30
2022-11-30T07:23:56.978Z,13.80
2022-11-30T07:26:25.863Z,11.80
2022-11-30T07:28:55.451Z,12.70
2022-11-30T07:31:26.551Z,12.80
2022-11-30T07:33:55.531Z,12.60
2022-11-30T07:36:26.421Z,12.50
2022-11-30T07:38:55.328Z,12.60
2022-11-30T07:41:23.953Z,13.80
2022-11-30T07:43:51.995Z,14.40
2022-11-30T07:46:20.402Z,14.40
2022-11-30T07:48:50.213Z,13.60
2022-11-30T07:51:21.020Z,14.60
2022-11-30T07:53:50.747Z,15.50
2022-11-30T07:56:21.095Z,15.60
2022-11-30T07:58:51.668Z,16.50
2022-11-30T08:01:22.765Z,15.10
2022-11-30T08:03:52.445Z,16.20
2022-11-30T08:06:29.434Z,14.80
2022-11-30T08:09:00.138Z,15.80
2022-11-30T08:11:31.723Z,16.10
2022-11-30T08:14:00.435Z,16.10
2022-11-30T08:16:31.184Z,15.70
2022-11-30T08:18:59.210Z,17.40
2022-11-30T08:21:26.980Z,15.40
2022-11-30T08:23:57.022Z,17.30
2022-11-30T08:26:32.225Z,16.60
2022-11-30T08:29:02.030Z,16.80
2022-11-30T08:31:33.439Z,16.50
2022-11-30T08:34:08.300Z,17.30
2022-11-30T08:36:36.819Z,17.00
2022-11-30T08:39:07.913Z,15.00
2022-11-30T08:41:36.938Z,14.90
2022-11-30T08:44:06.570Z,16.90
2022-11-30T08:46:50.858Z,17.60
2022-11-30T08:49:23.061Z,16.40
2022-11-30T08:54:46.784Z,17.30
2022-11-30T08:57:17.673Z,18.10
2022-11-30T08:59:48.479Z,18.30
2022-11-30T09:02:19.638Z,18.80
2022-11-30T09:04:49.796Z,18.30
2022-11-30T09:07:18.458Z,16.70
2022-11-30T09:09:47.207Z,16.60
2022-11-30T09:12:15.244Z,17.60
2022-11-30T09:14:43.048Z,17.20
2022-11-30T09:17:11.680Z,16.40
2022-11-30T09:19:40.303Z,16.90
2022-11-30T09:22:08.732Z,15.80
2022-11-30T09:24:38.552Z,17.10
2022-11-30T09:27:06.594Z,16.70
2022-11-30T09:29:37.430Z,16.80
2022-11-30T09:32:05.908Z,17.00
2022-11-30T09:34:35.117Z,17.80
2022-11-30T09:37:03.096Z,15.80
2022-11-30T09:39:31.266Z,15.80
2022-11-30T09:42:34.947Z,17.00
2022-11-30T09:45:19.577Z,17.40
2022-11-30T09:48:21.199Z,16.50
2022-11-30T09:50:51.701Z,18.90
2022-11-30T09:53:40.619Z,18.10
2022-11-30T09:56:31.749Z,15.90
2022-11-30T09:59:15.707Z,15.90
2022-11-30T10:01:46.208Z,15.90
2022-11-30T10:04:23.565Z,16.30
2022-11-30T10:07:22.870Z,16.00
2022-11-30T10:13:24.469Z,16.20
2022-11-30T10:16:14.532Z,15.90
2022-11-30T10:18:48.672Z,14.00
2022-11-30T10:22:01.735Z,14.10
2022-11-30T10:25:11.897Z,14.30
2022-11-30T10:28:12.647Z,14.60
2022-11-30T10:30:50.563Z,14.40
2022-11-30T10:33:24.146Z,19.40
2022-11-30T10:35:55.789Z,14.30
2022-11-30T10:38:30.800Z,13.80
2022-11-30T10:41:09.265Z,14.40
2022-11-30T10:43:46.868Z,14.20
2022-11-30T10:46:31.636Z,15.30
2022-11-30T10:49:07.935Z,15.10
2022-11-30T10:51:41.290Z,14.80
2022-11-30T10:54:17.474Z,15.50
2022-11-30T10:56:46.516Z,15.50
2022-11-30T10:59:31.873Z,16.50
2022-11-30T11:01:59.977Z,19.80
2022-11-30T11:04:28.020Z,23.90
2022-11-30T11:07:07.524Z,16.30
2022-11-30T11:09:37.594Z,16.50
2022-11-30T11:12:19.403Z,16.30
2022-11-30T11:14:49.003Z,16.60
2022-11-30T11:17:19.950Z,15.80
2022-11-30T11:19:51.122Z,17.60
2022-11-30T11:22:23.190Z,16.00
2022-11-30T11:24:56.219Z,17.50
2022-11-30T11:27:29.382Z,16.70
2022-11-30T11:30:08.326Z,16.90
2022-11-30T11:32:36.445Z,17.50
2022-11-30T11:35:35.886Z,17.20
2022-11-30T11:38:18.525Z,17.20
2022-11-30T11:41:06.198Z,17.30
2022-11-30T11:43:38.417Z,16.70
2022-11-30T11:46:14.300Z,17.50
2022-11-30T11:48:56.776Z,16.00
2022-11-30T11:51:40.549Z,16.90
2022-11-30T11:54:39.685Z,16.80
2022-11-30T11:57:15.806Z,16.10
2022-11-30T12:00:16.690Z,17.40
2022-11-30T12:03:14.952Z,16.60
2022-11-30T12:05:49.470Z,16.60
2022-11-30T12:08:31.263Z,16.10
2022-11-30T12:11:10.987Z,18.10
2022-11-30T12:13:42.170Z,16.60
2022-11-30T12:16:17.440Z,18.70
2022-11-30T12:19:20.634Z,18.10
2022-11-30T12:22:26.482Z,17.70
2022-11-30T12:25:12.962Z,16.60
2022-11-30T12:28:18.675Z,18.20
2022-11-30T12:30:59.339Z,18.40
2022-11-30T12:33:55.342Z,20.10
2022-11-30T12:36:42.922Z,19.70
2022-11-30T12:39:45.555Z,16.90
2022-11-30T12:42:38.202Z,16.70
2022-11-30T12:45:17.327Z,16.60
2022-11-30T12:48:29.690Z,18.10
2022-11-30T12:51:06.927Z,16.90
2022-11-30T12:53:56.908Z,17.50
2022-11-30T12:56:52.316Z,14.50
2022-11-30T12:59:39.233Z,15.90
2022-11-30T13:02:47.452Z,16.20
2022-11-30T13:05:24.932Z,15.70
2022-11-30T13:08:11.243Z,16.60
2022-11-30T13:10:46.394Z,17.70
2022-11-30T13:13:22.646Z,16.70
2022-11-30T13:15:50.580Z,17.90
2022-11-30T13:18:22.766Z,22.90
2022-11-30T13:21:01.813Z,18.30
2022-11-30T13:23:45.227Z,18.30
2022-11-30T13:26:16.429Z,16.60
2022-11-30T13:29:02.586Z,15.30
2022-11-30T13:31:34.686Z,16.00
2022-11-30T13:34:02.495Z,16.30
2022-11-30T13:36:38.902Z,17.20
2022-11-30T13:39:22.139Z,15.60
2022-11-30T13:42:25.882Z,16.50
2022-11-30T13:44:55.598Z,15.80
2022-11-30T13:47:29.441Z,17.40
2022-11-30T13:50:25.504Z,17.70
2022-11-30T13:52:59.093Z,17.50
2022-11-30T13:55:36.114Z,16.50
2022-11-30T13:58:07.741Z,16.20
2022-11-30T14:00:35.708Z,16.90
2022-11-30T14:03:22.238Z,15.60
2022-11-30T14:05:52.310Z,14.00
2022-11-30T14:08:23.282Z,14.50
2022-11-30T14:11:15.479Z,13.80
2022-11-30T14:13:45.263Z,13.80
2022-11-30T14:16:28.027Z,14.40
2022-11-30T14:18:57.617Z,14.50
2022-11-30T14:21:35.003Z,15.30
2022-11-30T14:24:22.094Z,13.50
2022-11-30T14:26:52.094Z,13.70
2022-11-30T14:29:25.273Z,13.40
2022-11-30T14:32:12.745Z,12.40
2022-11-30T14:34:46.084Z,13.70
2022-11-30T14:37:27.882Z,15.00
2022-11-30T14:40:01.434Z,14.50
2022-11-30T14:42:32.040Z,14.40
2022-11-30T14:45:00.765Z,13.80
2022-11-30T14:47:36.545Z,13.00
2022-11-30T14:50:06.318Z,14.00
2022-11-30T14:53:03.265Z,14.50
2022-11-30T14:55:49.996Z,15.10
2022-11-30T14:58:40.192Z,15.00
2022-11-30T15:01:31.261Z,16.30
2022-11-30T15:04:10.664Z,16.50
2022-11-30T15:06:41.285Z,16.20
2022-11-30T15:09:29.787Z,16.60
2022-11-30T15:11:58.963Z,17.00
2022-11-30T15:14:27.862Z,16.50
2022-11-30T15:16:58.910Z,17.80
2022-11-30T15:19:33.471Z,17.20
2022-11-30T15:22:01.983Z,17.80
2022-11-30T15:24:30.987Z,19.30
2022-11-30T15:27:14.555Z,18.60
2022-11-30T15:29:54.670Z,18.80
2022-11-30T15:32:28.472Z,18.50
2022-11-30T15:35:01.664Z,18.60
2022-11-30T15:37:41.364Z,20.30
2022-11-30T15:40:15.857Z,21.40
2022-11-30T15:42:49.908Z,22.30
2022-11-30T15:45:25.499Z,21.20
2022-11-30T15:47:57.643Z,19.90
2022-11-30T15:50:39.703Z,20.70
2022-11-30T15:53:32.760Z,22.60
2022-11-30T15:56:05.453Z,21.80
2022-11-30T15:58:46.087Z,21.90
2022-11-30T16:01:26.127Z,21.60
2022-11-30T16:04:05.088Z,20.80
2022-11-30T16:06:38.698Z,20.40
2022-11-30T16:09:21.027Z,21.00
2022-11-30T16:11:54.558Z,21.00
2022-11-30T16:14:24.511Z,22.30
2022-11-30T16:16:55.449Z,22.30
2022-11-30T16:19:23.254Z,22.30
2022-11-30T16:21:52.250Z,22.00
2022-11-30T16:24:23.103Z,23.90
2022-11-30T16:26:51.972Z,23.60
2022-11-30T16:29:20.908Z,25.20
2022-11-30T16:31:50.028Z,25.10
2022-11-30T16:34:17.892Z,26.80
2022-11-30T16:36:46.419Z,27.10
2022-11-30T16:39:15.256Z,29.60
2022-11-30T16:41:46.343Z,27.50
2022-11-30T16:44:15.421Z,27.40
2022-11-30T16:46:43.462Z,25.60
2022-11-30T16:49:13.911Z,25.50
2022-11-30T16:51:42.953Z,24.90
2022-11-30T16:54:16.022Z,24.90
2022-11-30T16:56:46.959Z,24.30
2022-11-30T16:59:17.143Z,27.80
2022-11-30T17:01:54.127Z,29.20
2022-11-30T17:04:26.478Z,33.10
2022-11-30T17:07:01.913Z,30.30
2022-11-30T17:09:35.531Z,27.80
2022-11-30T17:12:03.702Z,26.80
2022-11-30T17:14:31.537Z,28.90
2022-11-30T17:17:03.229Z,28.10
2022-11-30T17:19:32.044Z,27.30
2022-11-30T17:22:00.072Z,29.10
2022-11-30T17:24:28.086Z,26.70
2022-11-30T17:26:56.898Z,27.80
2022-11-30T17:29:25.311Z,28.60
2022-11-30T17:31:54.790Z,30.50
2022-11-30T17:34:22.735Z,29.50
2022-11-30T17:36:52.230Z,28.80
2022-11-30T17:39:20.573Z,27.70
2022-11-30T17:41:49.500Z,37.40
2022-11-30T17:44:18.556Z,31.90
2022-11-30T17:46:48.618Z,30.90
2022-11-30T17:49:17.561Z,32.80
2022-11-30T17:51:45.615Z,34.50
2022-11-30T17:54:13.488Z,32.60
2022-11-30T17:56:43.912Z,34.10
2022-11-30T17:59:11.902Z,38.70
2022-11-30T18:01:41.552Z,38.10
2022-11-30T18:04:10.760Z,34.70
2022-11-30T18:06:38.558Z,36.20
2022-11-30T18:09:06.293Z,37.90
2022-11-30T18:11:34.389Z,33.20
2022-11-30T18:14:06.112Z,32.80
2022-11-30T18:16:37.382Z,32.30
2022-11-30T18:19:13.119Z,30.10
2022-11-30T18:21:46.138Z,30.00
2022-11-30T18:24:13.931Z,42.30
2022-11-30T18:26:41.718Z,41.00
2022-11-30T18:29:10.966Z,31.00
2022-11-30T18:31:38.786Z,29.60
2022-11-30T18:34:07.949Z,29.90
2022-11-30T18:36:35.741Z,29.20
2022-11-30T18:39:03.796Z,27.20
2022-11-30T18:41:31.813Z,28.80
2022-11-30T18:43:59.633Z,27.80
2022-11-30T18:46:29.930Z,27.60
2022-11-30T18:49:00.018Z,26.90
2022-11-30T18:51:31.456Z,28.00
2022-11-30T18:54:03.416Z,26.90
2022-11-30T18:56:35.370Z,26.40
2022-11-30T18:59:07.970Z,28.00
2022-11-30T19:01:37.320Z,25.10
2022-11-30T19:04:08.902Z,25.30
2022-11-30T19:06:39.772Z,23.60
2022-11-30T19:09:11.517Z,26.50
2022-11-30T19:11:41.394Z,24.10
2022-11-30T19:14:14.175Z,22.80
2022-11-30T19:16:43.255Z,22.60
2022-11-30T19:19:14.643Z,18.20
2022-11-30T19:21:45.370Z,19.30
2022-11-30T19:24:14.988Z,19.50
2022-11-30T19:26:43.001Z,22.30
2022-11-30T19:29:12.925Z,20.10
2022-11-30T19:31:41.378Z,21.50
2022-11-30T19:34:12.990Z,21.60
2022-11-30T19:36:41.989Z,23.90
2022-11-30T19:39:11.130Z,21.90
2022-11-30T19:41:40.084Z,22.90
2022-11-30T19:44:14.939Z,28.70
2022-11-30T19:46:42.797Z,19.20
2022-11-30T19:49:12.148Z,20.60
2022-11-30T19:51:41.064Z,19.70
2022-11-30T19:54:09.050Z,19.50
2022-11-30T19:56:39.756Z,19.10
2022-11-30T19:59:07.733Z,18.20
2022-11-30T20:01:36.698Z,20.40
2022-11-30T20:04:05.877Z,19.40
2022-11-30T20:06:37.531Z,20.60
2022-11-30T20:09:08.201Z,22.00
2022-11-30T20:11:37.905Z,25.50
2022-11-30T20:14:07.282Z,23.50
2022-11-30T20:16:37.281Z,22.20
2022-11-30T20:19:05.833Z,20.60
2022-11-30T20:21:36.120Z,18.90
2022-11-30T20:24:08.537Z,23.20
2022-11-30T20:26:43.483Z,28.60
2022-11-30T20:29:17.579Z,20.40
2022-11-30T20:31:48.720Z,20.40
2022-11-30T20:34:18.342Z,19.40
2022-11-30T20:36:48.042Z,20.40
2022-11-30T20:39:16.092Z,19.50
2022-11-30T20:41:44.151Z,19.80
2022-11-30T20:44:15.889Z,18.10
2022-11-30T20:46:44.088Z,18.40
2022-11-30T20:49:22.485Z,17.20
2022-11-30T20:51:50.577Z,18.50
2022-11-30T20:54:20.095Z,16.80
2022-11-30T20:56:51.087Z,17.70
2022-11-30T20:59:23.920Z,18.00
2022-11-30T21:01:55.834Z,18.00
2022-11-30T21:04:26.217Z,16.40
2022-11-30T21:06:56.295Z,17.80
2022-11-30T21:09:24.269Z,18.70
2022-11-30T21:11:53.067Z,21.70
2022-11-30T21:14:20.878Z,22.20
2022-11-30T21:16:48.896Z,18.50
2022-11-30T21:19:18.181Z,18.30
2022-11-30T21:21:46.273Z,19.80
2022-11-30T21:24:14.281Z,20.10
2022-11-30T21:26:43.754Z,19.90
2022-11-30T21:29:16.819Z,19.70
2022-11-30T21:31:47.075Z,18.50
2022-11-30T21:34:15.119Z,17.60
2022-11-30T21:36:43.119Z,18.20
2022-11-30T21:39:15.237Z,18.90
2022-11-30T21:41:44.690Z,18.70
2022-11-30T21:44:15.190Z,19.30
2022-11-30T21:46:48.417Z,20.30
2022-11-30T21:49:17.715Z,20.90
2022-11-30T21:51:45.566Z,20.20
2022-11-30T21:54:14.971Z,17.60
2022-11-30T21:56:47.269Z,19.10
2022-11-30T21:59:15.327Z,19.80
2022-11-30T22:01:45.501Z,33.20
2022-11-30T22:04:15.010Z,23.10
2022-11-30T22:06:44.609Z,22.00
2022-11-30T22:09:16.649Z,19.90
2022-11-30T22:11:46.856Z,20.30
2022-11-30T22:14:16.901Z,20.00
2022-11-30T22:16:47.731Z,19.10
2022-11-30T22:19:17.900Z,21.80
2022-11-30T22:21:49.955Z,18.50
2022-11-30T22:24:19.904Z,21.10
2022-11-30T22:26:49.853Z,19.20
2022-11-30T22:29:22.741Z,19.60
2022-11-30T22:31:53.631Z,19.90
2022-11-30T22:34:22.867Z,18.90
2022-11-30T22:36:50.677Z,19.90
2022-11-30T22:39:21.248Z,18.30
2022-11-30T22:41:55.565Z,19.10
2022-11-30T22:44:27.295Z,18.00
2022-11-30T22:46:56.891Z,17.90
2022-11-30T22:49:24.939Z,20.00
2022-11-30T22:51:54.296Z,20.20
2022-11-30T22:54:22.326Z,18.30
2022-11-30T22:56:50.075Z,18.70
2022-11-30T22:59:18.634Z,17.40
2022-11-30T23:01:51.010Z,18.70
2022-11-30T23:04:23.026Z,18.30
2022-11-30T23:06:52.768Z,17.50
2022-11-30T23:09:23.728Z,18.80
2022-11-30T23:11:53.752Z,17.70
2022-11-30T23:14:21.543Z,17.90
2022-11-30T23:16:50.667Z,26.20
2022-11-30T23:19:18.731Z,19.50
2022-11-30T23:21:51.343Z,18.80
2022-11-30T23:24:22.068Z,16.70
2022-11-30T23:26:51.465Z,17.60
2022-11-30T23:29:19.260Z,16.80
2022-11-30T23:31:50.342Z,16.90
2022-11-30T23:34:22.461Z,17.80
2022-11-30T23:36:52.022Z,17.80
2022-11-30T23:39:21.569Z,18.80
2022-11-30T23:41:52.259Z,17.80
2022-11-30T23:44:20.005Z,16.90
2022-11-30T23:46:51.263Z,17.70
2022-11-30T23:49:21.689Z,17.10
2022-11-30T23:51:49.434Z,17.60
2022-11-30T23:54:18.531Z,17.70
2022-11-30T23:56:46.314Z,16.30
2022-11-30T23:59:15.065Z,17.30
